Time;durP1;ratioP1;P1;durP2;ratioP2;P2;SDS_P1;SDS_P2;PMS_P1;PMS_P2;Temp;Humidity;BMP_temperature;BMP_pressure;BME280_temperature;BME280_humidity;BME280_pressure;Samples;Min_cycle;Max_cycle;Signal;HPM_P1;HPM_P2
2021/05/08 00:00:19;;;;;;;10.45;6.50;;;;;;;18.97;58.69;99733.04;1768874;81;21609;-65
2021/05/08 00:02:46;;;;;;;12.05;7.55;;;;;;;18.99;58.70;99728.45;1775161;80;21175;-51
2021/05/08 00:05:14;;;;;;;12.60;7.58;;;;;;;18.98;58.74;99718.76;1729603;83;21604;-65
2021/05/08 00:07:42;;;;;;;11.50;6.60;;;;;;;18.94;58.89;99719.84;1772166;80;21560;-66
2021/05/08 00:10:13;;;;;;;11.03;7.30;;;;;;;18.99;58.67;99719.98;1778347;81;21583;-51
2021/05/08 00:12:41;;;;;;;14.40;7.35;;;;;;;18.96;58.79;99713.98;1770963;80;21179;-51
2021/05/08 00:15:10;;;;;;;11.22;6.67;;;;;;;19.01;58.62;99706.09;1729609;83;21595;-66
2021/05/08 00:17:39;;;;;;;12.95;6.75;;;;;;;18.92;58.76;99706.59;1777566;80;21175;-51
2021/05/08 00:20:11;;;;;;;8.55;6.75;;;;;;;18.86;58.92;99710.94;1779804;80;21155;-52
2021/05/08 00:22:39;;;;;;;12.85;6.90;;;;;;;18.85;58.97;99705.22;1778074;81;21286;-65
2021/05/08 00:25:09;;;;;;;12.03;6.60;;;;;;;18.85;58.94;99710.55;1779259;80;21637;-52
2021/05/08 00:27:36;;;;;;;11.05;6.95;;;;;;;18.82;58.90;99706.27;1778664;81;21302;-61
2021/05/08 00:30:06;;;;;;;10.88;6.50;;;;;;;18.90;58.71;99706.30;1779177;79;21157;-52
2021/05/08 00:32:35;;;;;;;10.85;6.60;;;;;;;18.85;58.80;99701.22;1776247;80;21183;-52
2021/05/08 00:35:04;;;;;;;10.72;6.83;;;;;;;18.86;58.77;99690.48;1770867;81;21185;-66
2021/05/08 00:37:31;;;;;;;12.33;6.50;;;;;;;18.87;58.74;99695.33;1769426;81;21289;-52
2021/05/08 00:39:59;;;;;;;11.95;6.20;;;;;;;18.87;58.68;99686.88;1770505;80;21159;-66
2021/05/08 00:42:27;;;;;;;9.93;6.50;;;;;;;18.89;58.62;99682.77;1727858;82;21318;-51
2021/05/08 00:44:55;;;;;;;11.05;6.80;;;;;;;18.87;58.62;99682.00;1769218;81;21138;-52
2021/05/08 00:47:23;;;;;;;10.08;6.03;;;;;;;18.85;58.61;99679.89;1800507;80;21127;-66
2021/05/08 00:49:51;;;;;;;10.38;6.37;;;;;;;18.86;58.55;99668.28;1712957;84;21265;-67
2021/05/08 00:52:20;;;;;;;9.95;5.87;;;;;;;18.78;58.69;99663.41;1711443;84;21177;-52
2021/05/08 00:54:48;;;;;;;9.63;6.45;;;;;;;18.78;58.71;99659.86;1769455;80;21139;-52
2021/05/08 00:57:16;;;;;;;11.40;6.42;;;;;;;18.73;58.75;99651.69;1704787;83;21563;-52
2021/05/08 00:59:44;;;;;;;9.55;6.15;;;;;;;18.74;58.68;99651.20;1769478;81;21167;-66
2021/05/08 01:02:12;;;;;;;12.10;6.53;;;;;;;18.75;58.60;99654.25;1769558;81;21187;-52
2021/05/08 01:04:39;;;;;;;9.73;6.25;;;;;;;18.75;58.55;99654.25;1769944;80;21135;-51
2021/05/08 01:07:07;;;;;;;9.20;6.20;;;;;;;18.71;58.54;99647.38;1763528;80;21159;-52
2021/05/08 01:09:36;;;;;;;10.63;6.20;;;;;;;18.71;58.47;99648.25;1727850;83;21168;-52
2021/05/08 01:12:05;;;;;;;9.65;6.78;;;;;;;18.73;58.34;99646.81;1799982;80;21128;-52
2021/05/08 01:14:35;;;;;;;10.18;5.95;;;;;;;18.63;58.52;99649.16;1800375;80;21290;-65
2021/05/08 01:17:02;;;;;;;12.70;6.15;;;;;;;18.64;58.52;99646.01;1769708;81;21163;-66
2021/05/08 01:19:32;;;;;;;9.48;6.00;;;;;;;18.60;58.57;99656.45;1727990;83;21160;-52
2021/05/08 01:22:00;;;;;;;9.83;5.72;;;;;;;18.59;58.56;99648.95;1769581;81;21171;-66
2021/05/08 01:24:29;;;;;;;9.98;6.17;;;;;;;18.63;58.51;99651.83;1770532;80;21132;-52
2021/05/08 01:26:57;;;;;;;12.07;6.10;;;;;;;18.63;58.50;99642.50;1769305;81;21191;-52
2021/05/08 01:29:26;;;;;;;10.30;6.30;;;;;;;18.64;58.48;99644.67;1769370;80;21151;-66
2021/05/08 01:31:53;;;;;;;11.10;6.40;;;;;;;18.63;58.51;99642.50;1727560;82;21178;-52
2021/05/08 01:34:22;;;;;;;11.10;6.28;;;;;;;18.60;58.62;99643.13;1728900;82;21148;-64
2021/05/08 01:36:50;;;;;;;11.65;5.85;;;;;;;18.52;58.88;99645.79;1776961;80;21162;-52
2021/05/08 01:39:19;;;;;;;9.25;6.17;;;;;;;18.58;58.79;99632.09;1776989;80;21146;-66
2021/05/08 01:41:47;;;;;;;12.18;6.47;;;;;;;18.51;59.10;99631.20;1776568;79;21129;-61
2021/05/08 01:44:15;;;;;;;10.30;6.42;;;;;;;18.50;59.20;99626.37;1776422;79;21131;-65
2021/05/08 01:46:43;;;;;;;9.00;6.45;;;;;;;18.55;59.01;99626.93;1774224;81;21188;-66
2021/05/08 01:49:11;;;;;;;15.53;6.90;;;;;;;18.61;58.90;99631.53;1774230;81;21152;-51
2021/05/08 01:51:40;;;;;;;9.35;5.70;;;;;;;18.58;58.92;99622.76;1782555;79;21116;-52
2021/05/08 01:54:08;;;;;;;12.05;6.45;;;;;;;18.61;58.98;99642.19;1774621;81;21163;-64
2021/05/08 01:56:35;;;;;;;16.93;7.12;;;;;;;18.65;58.83;99635.28;1774627;81;21140;-66
2021/05/08 01:59:05;;;;;;;10.10;6.08;;;;;;;18.33;59.45;99637.11;1658659;84;21191;-52
2021/05/08 02:01:33;;;;;;;9.40;5.75;;;;;;;17.67;61.71;99646.42;1777282;79;21172;-66
2021/05/08 02:04:03;;;;;;;11.12;6.25;;;;;;;17.58;62.12;99646.91;1774197;81;21151;-52
2021/05/08 02:06:30;;;;;;;12.55;6.03;;;;;;;17.65;62.12;99657.62;1774226;81;21119;-52
2021/05/08 02:09:00;;;;;;;11.03;6.50;;;;;;;17.62;62.21;99674.63;1730658;83;21134;-52
2021/05/08 02:11:32;;;;;;;11.70;7.53;;;;;;;17.56;62.61;99683.38;1729483;81;21151;-52
2021/05/08 02:14:01;;;;;;;12.20;7.55;;;;;;;17.59;62.64;99676.11;1774200;81;21179;-66
2021/05/08 02:16:29;;;;;;;9.98;6.03;;;;;;;17.59;62.55;99678.77;1774201;81;21201;-66
2021/05/08 02:18:57;;;;;;;9.25;6.05;;;;;;;17.56;62.61;99677.60;1775055;80;21175;-66
2021/05/08 02:21:26;;;;;;;13.68;6.37;;;;;;;17.56;62.89;99672.73;1774280;81;21158;-52
2021/05/08 02:23:55;;;;;;;11.10;6.20;;;;;;;18.21;60.92;99662.64;1774279;81;21167;-66
2021/05/08 02:26:23;;;;;;;15.63;7.17;;;;;;;18.28;60.62;99678.18;1774209;80;21159;-66
2021/05/08 02:28:51;;;;;;;11.20;6.17;;;;;;;18.28;60.53;99672.02;1781189;79;21147;-53
2021/05/08 02:31:19;;;;;;;9.80;6.03;;;;;;;18.28;60.43;99678.67;1735020;82;21240;-66
2021/05/08 02:33:47;;;;;;;9.98;6.42;;;;;;;18.25;60.51;99681.50;1772751;81;21147;-66
2021/05/08 02:36:17;;;;;;;12.78;6.90;;;;;;;18.19;60.60;99686.67;1771827;81;21217;-54
2021/05/08 02:38:44;;;;;;;10.95;6.92;;;;;;;18.17;60.62;99683.23;1775609;80;21146;-66
2021/05/08 02:41:12;;;;;;;12.40;6.92;;;;;;;18.14;60.69;99688.73;1772066;81;21155;-52
2021/05/08 02:43:40;;;;;;;13.40;6.83;;;;;;;18.14;60.73;99696.72;1693932;85;21167;-66
2021/05/08 02:46:12;;;;;;;12.33;6.37;;;;;;;18.13;60.80;99701.20;1775743;79;21596;-52
2021/05/08 02:48:40;;;;;;;10.75;6.78;;;;;;;18.11;60.87;99707.08;1773028;80;21598;-65
2021/05/08 02:51:08;;;;;;;13.88;7.30;;;;;;;18.06;61.02;99704.30;1771988;81;21170;-51
2021/05/08 02:53:37;;;;;;;8.78;6.22;;;;;;;18.07;60.98;99720.17;1771710;81;21159;-51
2021/05/08 02:56:06;;;;;;;12.15;6.60;;;;;;;18.02;61.28;99728.88;1708221;83;21684;-51
2021/05/08 02:58:42;;;;;;;10.68;6.92;;;;;;;17.98;61.37;99732.61;1772549;80;21328;-51
2021/05/08 03:01:10;;;;;;;12.25;7.33;;;;;;;17.97;61.47;99736.21;1772017;81;21196;-52
2021/05/08 03:03:40;;;;;;;9.58;6.45;;;;;;;17.95;61.67;99741.63;1693652;85;21175;-52
2021/05/08 03:06:08;;;;;;;12.53;7.15;;;;;;;17.95;62.06;99727.45;1775905;79;21123;-51
2021/05/08 03:08:38;;;;;;;13.30;7.37;;;;;;;17.98;61.83;99718.84;1771893;81;21262;-52
2021/05/08 03:11:07;;;;;;;16.40;7.30;;;;;;;18.00;61.93;99711.27;1771298;81;21157;-52
2021/05/08 03:13:37;;;;;;;11.70;7.27;;;;;;;18.01;62.04;99710.33;1775706;79;21119;-66
2021/05/08 03:16:05;;;;;;;11.12;6.75;;;;;;;18.03;62.03;99698.64;1773730;80;21119;-53
2021/05/08 03:18:34;;;;;;;13.03;7.15;;;;;;;18.01;62.09;99691.21;1771690;81;21128;-52
2021/05/08 03:21:02;;;;;;;10.43;6.92;;;;;;;18.00;62.25;99682.83;1693649;85;21192;-52
2021/05/08 03:23:31;;;;;;;11.15;7.30;;;;;;;18.01;62.32;99680.56;1782418;79;21143;-53
2021/05/08 03:25:59;;;;;;;10.93;6.97;;;;;;;18.00;62.42;99684.16;1721971;83;21317;-53
2021/05/08 03:28:27;;;;;;;11.80;7.37;;;;;;;18.01;62.46;99678.38;1803575;79;21155;-52
2021/05/08 03:30:56;;;;;;;13.68;7.95;;;;;;;18.03;62.53;99684.00;1803255;79;21175;-65
2021/05/08 03:33:24;;;;;;;9.50;6.62;;;;;;;18.08;62.48;99672.63;1782249;79;21132;-53
2021/05/08 03:35:52;;;;;;;13.48;7.00;;;;;;;17.60;63.77;99679.16;1707877;83;21152;-53
2021/05/08 03:38:21;;;;;;;10.35;6.60;;;;;;;17.31;64.84;99673.55;1729415;83;21156;-53
2021/05/08 03:40:49;;;;;;;9.63;7.58;;;;;;;17.90;63.38;99662.94;1700844;83;21851;-53
2021/05/08 03:43:17;;;;;;;16.05;7.28;;;;;;;17.97;63.20;99658.55;1788096;79;21155;-52
2021/05/08 03:45:44;;;;;;;14.78;7.80;;;;;;;18.05;63.16;99656.81;1769100;81;21187;-65
2021/05/08 03:48:12;;;;;;;9.75;6.72;;;;;;;18.10;63.12;99670.74;1772023;80;21167;-64
2021/05/08 03:50:40;;;;;;;13.90;7.40;;;;;;;18.19;62.98;99670.70;1778880;80;21092;-53
2021/05/08 03:53:08;;;;;;;13.05;7.70;;;;;;;18.23;62.83;99688.23;1779528;80;21579;-52
2021/05/08 03:55:38;;;;;;;10.90;7.92;;;;;;;18.25;62.80;99707.65;1773488;81;21131;-65
2021/05/08 03:58:06;;;;;;;12.93;7.47;;;;;;;18.23;62.86;99716.20;1778854;80;21587;-65
2021/05/08 04:00:34;;;;;;;14.25;8.88;;;;;;;18.21;62.96;99714.09;1773189;80;21172;-65
2021/05/08 04:03:02;;;;;;;12.35;8.08;;;;;;;18.24;63.03;99722.40;1773800;80;21604;-65
2021/05/08 04:05:30;;;;;;;16.12;8.70;;;;;;;18.23;63.22;99733.99;1768917;81;21181;-52
2021/05/08 04:07:58;;;;;;;13.70;8.45;;;;;;;18.23;63.37;99732.17;1768916;81;21139;-52
2021/05/08 04:10:25;;;;;;;14.15;8.33;;;;;;;18.24;63.58;99739.22;1768854;81;21563;-65
2021/05/08 04:12:53;;;;;;;12.73;8.68;;;;;;;18.26;63.80;99741.81;1773505;80;21131;-65
2021/05/08 04:15:21;;;;;;;13.62;7.90;;;;;;;18.35;63.70;99729.80;1779318;81;21192;-53
2021/05/08 04:17:49;;;;;;;12.82;8.43;;;;;;;18.41;63.69;99737.45;1779059;81;21168;-65
2021/05/08 04:20:17;;;;;;;15.23;8.70;;;;;;;18.57;63.36;99746.29;1700926;83;21215;-65
2021/05/08 04:22:45;;;;;;;16.60;8.78;;;;;;;18.50;63.52;99772.04;1769072;80;21151;-52
2021/05/08 04:25:13;;;;;;;12.25;7.83;;;;;;;18.51;63.64;99783.97;1715860;82;21127;-65
2021/05/08 04:27:41;;;;;;;18.07;9.35;;;;;;;18.50;63.70;99803.56;1788252;80;21148;-65
2021/05/08 04:30:11;;;;;;;17.12;9.35;;;;;;;18.52;63.68;99808.79;1768817;81;21203;-64
2021/05/08 04:32:39;;;;;;;16.93;9.13;;;;;;;18.53;63.64;99782.08;1775329;80;21177;-54
2021/05/08 04:35:08;;;;;;;15.05;9.28;;;;;;;18.49;63.74;99773.86;1773762;81;21552;-64
2021/05/08 04:37:36;;;;;;;14.28;9.20;;;;;;;18.47;63.78;99778.87;1774054;81;21188;-64
2021/05/08 04:40:05;;;;;;;16.20;9.15;;;;;;;18.46;63.80;99787.35;1775038;79;21135;-64
2021/05/08 04:42:33;;;;;;;16.37;8.98;;;;;;;18.49;63.72;99750.34;1708201;83;21149;-64
2021/05/08 04:45:01;;;;;;;14.20;8.33;;;;;;;18.55;63.61;99710.87;1717116;83;21557;-64
2021/05/08 04:47:29;;;;;;;12.63;8.53;;;;;;;18.65;63.48;99705.91;1793766;79;21143;-64
2021/05/08 04:49:59;;;;;;;14.30;9.25;;;;;;;18.73;63.58;99780.09;1776144;79;21136;-63
2021/05/08 04:52:27;;;;;;;13.00;9.30;;;;;;;18.66;63.96;99852.00;1789124;79;21123;-64
2021/05/08 04:54:55;;;;;;;14.45;9.85;;;;;;;18.45;64.41;99878.88;1797872;79;21186;-53
2021/05/08 04:57:23;;;;;;;11.45;8.93;;;;;;;18.39;64.48;99881.38;1774236;81;21127;-53
2021/05/08 04:59:52;;;;;;;15.48;9.55;;;;;;;18.36;64.56;99892.20;1774786;80;21120;-52
2021/05/08 05:02:20;;;;;;;15.48;10.75;;;;;;;18.32;64.76;99909.77;1774276;81;21127;-53
2021/05/08 05:04:48;;;;;;;14.95;10.10;;;;;;;18.27;65.07;99925.52;1774423;80;21566;-54
2021/05/08 05:07:15;;;;;;;13.10;11.18;;;;;;;18.28;64.95;99923.24;1774564;81;21570;-64
2021/05/08 05:09:44;;;;;;;19.48;11.97;;;;;;;18.29;65.21;99933.45;1792926;79;21574;-63
2021/05/08 05:12:13;;;;;;;15.78;12.93;;;;;;;18.21;65.31;99921.83;1788177;79;21092;-54
2021/05/08 05:14:41;;;;;;;15.58;12.73;;;;;;;18.15;65.62;99918.15;1774218;80;21163;-54
2021/05/08 05:17:09;;;;;;;14.25;12.40;;;;;;;18.10;65.63;99909.08;1775079;80;21159;-63
2021/05/08 05:19:36;;;;;;;14.53;9.68;;;;;;;18.04;66.12;99914.71;1774427;80;21186;-63
2021/05/08 05:22:04;;;;;;;11.28;8.40;;;;;;;17.71;67.10;99948.71;1704926;83;21180;-54
2021/05/08 05:24:32;;;;;;;7.70;5.05;;;;;;;17.45;67.58;99965.93;1774640;79;21124;-63
2021/05/08 05:27:00;;;;;;;7.70;4.30;;;;;;;17.15;67.65;99962.45;1788136;79;21145;-54
2021/05/08 05:29:28;;;;;;;5.03;3.40;;;;;;;16.85;67.73;99957.11;1779115;79;21131;-54
2021/05/08 05:31:57;;;;;;;4.87;3.02;;;;;;;17.08;66.71;99929.50;1786288;79;21192;-64
2021/05/08 05:34:25;;;;;;;4.87;2.90;;;;;;;17.01;66.45;99934.70;1784733;79;21125;-64
2021/05/08 05:36:54;;;;;;;5.17;2.60;;;;;;;17.00;66.34;99934.79;1780773;80;21577;-53
2021/05/08 05:39:21;;;;;;;3.02;1.80;;;;;;;16.95;66.13;99932.29;1772181;80;21594;-54
2021/05/08 05:41:49;;;;;;;4.20;2.08;;;;;;;16.85;65.86;99941.16;1774606;81;21171;-54
2021/05/08 05:44:17;;;;;;;3.60;2.05;;;;;;;16.83;65.84;99956.31;1774042;80;21191;-63
2021/05/08 05:46:45;;;;;;;3.83;2.15;;;;;;;16.80;65.74;99956.45;1769078;81;21135;-62
2021/05/08 05:49:14;;;;;;;3.20;1.70;;;;;;;16.75;65.87;99947.37;1711083;83;21190;-62
2021/05/08 05:51:41;;;;;;;3.22;1.60;;;;;;;16.68;65.73;99943.70;1769530;80;21606;-54
2021/05/08 05:54:09;;;;;;;2.05;1.50;;;;;;;16.70;65.61;99938.73;1768957;81;21638;-53
2021/05/08 05:56:37;;;;;;;2.77;1.40;;;;;;;16.64;65.78;99919.92;1790078;80;21163;-55
2021/05/08 05:59:05;;;;;;;2.55;1.30;;;;;;;16.60;65.26;99942.25;1720635;83;21171;-53
2021/05/08 06:01:33;;;;;;;2.58;1.37;;;;;;;16.48;65.28;99955.61;1717059;83;21603;-62
2021/05/08 06:04:02;;;;;;;2.95;1.30;;;;;;;16.52;65.44;99967.44;1778102;80;21151;-53
2021/05/08 06:06:30;;;;;;;2.42;1.40;;;;;;;16.59;65.44;99978.20;1779394;79;21520;-54
2021/05/08 06:08:59;;;;;;;2.55;1.40;;;;;;;16.60;65.42;99971.95;1779261;81;21155;-53
2021/05/08 06:11:26;;;;;;;6.15;1.98;;;;;;;16.66;65.90;99954.41;1774684;81;21140;-53
2021/05/08 06:13:55;;;;;;;3.47;1.62;;;;;;;16.70;65.76;99933.88;1768767;81;21187;-62
2021/05/08 06:16:23;;;;;;;2.27;1.70;;;;;;;16.79;65.65;99932.13;1711343;83;21140;-62
2021/05/08 06:18:51;;;;;;;3.98;1.80;;;;;;;16.88;65.47;99930.84;1768754;81;21186;-53
2021/05/08 06:21:19;;;;;;;3.35;1.95;;;;;;;16.90;65.28;99948.47;1771142;80;21277;-53
2021/05/08 06:23:47;;;;;;;2.02;1.35;;;;;;;16.89;64.79;99955.16;1779563;80;21148;-54
2021/05/08 06:26:15;;;;;;;2.37;1.50;;;;;;;16.87;64.08;99970.31;1776402;81;21112;-53
2021/05/08 06:28:43;;;;;;;4.17;1.92;;;;;;;16.80;63.85;99969.25;1779130;79;21143;-62
2021/05/08 06:31:11;;;;;;;2.75;1.37;;;;;;;16.75;64.15;99939.84;1772012;81;21184;-63
2021/05/08 06:33:39;;;;;;;2.87;1.42;;;;;;;16.58;63.90;99943.26;1770963;80;21606;-63
2021/05/08 06:36:07;;;;;;;2.40;1.20;;;;;;;16.45;63.89;99920.36;1791261;80;21647;-53
2021/05/08 06:38:35;;;;;;;2.10;1.15;;;;;;;16.24;63.86;99928.80;1792666;80;21123;-53
2021/05/08 06:41:03;;;;;;;3.12;1.50;;;;;;;16.11;64.19;99926.66;1783082;79;21147;-62
2021/05/08 06:43:31;;;;;;;2.72;1.57;;;;;;;16.00;64.10;99932.44;1698195;83;21575;-53
2021/05/08 06:45:59;;;;;;;2.83;1.32;;;;;;;15.96;64.27;99948.53;1752530;82;21683;-62
2021/05/08 06:48:26;;;;;;;2.98;1.37;;;;;;;15.95;64.30;99958.30;1755639;79;21136;-62
2021/05/08 06:50:56;;;;;;;2.15;1.35;;;;;;;16.04;64.80;99967.67;1722525;82;21148;-53
2021/05/08 06:53:23;;;;;;;3.62;1.27;;;;;;;16.03;64.76;99987.17;1791344;79;21542;-53
2021/05/08 06:55:51;;;;;;;3.12;1.52;;;;;;;16.04;64.02;99990.23;1793029;80;21150;-53
2021/05/08 06:58:19;;;;;;;2.75;1.40;;;;;;;16.10;64.02;99996.62;1792854;80;21582;-53
2021/05/08 07:00:47;;;;;;;5.62;1.30;;;;;;;16.20;64.20;100010.36;1775643;79;21553;-62
2021/05/08 07:03:16;;;;;;;2.85;1.10;;;;;;;16.26;64.53;100012.77;1788978;80;21122;-62
2021/05/08 07:05:44;;;;;;;2.95;1.05;;;;;;;16.34;64.59;100019.08;1780304;80;21163;-62
2021/05/08 07:08:12;;;;;;;2.98;1.00;;;;;;;16.50;64.71;100011.34;1782853;79;21519;-54
2021/05/08 07:10:51;;;;;;;2.22;0.98;;;;;;;16.71;64.58;100018.85;1776196;79;21603;-62
2021/05/08 07:13:20;;;;;;;1.57;0.78;;;;;;;16.90;64.18;100024.67;1699791;83;21126;-62
2021/05/08 07:15:51;;;;;;;2.12;1.12;;;;;;;16.86;62.69;100026.61;1771412;81;21136;-54
2021/05/08 07:18:19;;;;;;;2.62;1.10;;;;;;;16.94;62.68;100030.25;1774363;79;21277;-54
2021/05/08 07:20:47;;;;;;;1.85;0.98;;;;;;;17.02;62.45;100040.11;1792863;79;21150;-63
2021/05/08 07:23:15;;;;;;;3.27;1.27;;;;;;;17.24;62.84;100032.48;1792802;80;21566;-54
2021/05/08 07:25:43;;;;;;;4.20;1.57;;;;;;;17.42;63.41;100043.22;1786377;80;21285;-54
2021/05/08 07:28:19;;;;;;;3.20;1.40;;;;;;;17.55;62.70;100040.39;1787784;79;21079;-54
2021/05/08 07:30:49;;;;;;;3.33;1.90;;;;;;;17.73;62.03;100041.32;1792533;80;21582;-54
2021/05/08 07:33:18;;;;;;;4.33;1.87;;;;;;;17.69;60.62;100047.23;1792546;80;21575;-65
2021/05/08 07:35:46;;;;;;;5.37;2.33;;;;;;;17.79;60.76;100038.38;1775856;80;21552;-66
2021/05/08 07:38:14;;;;;;;5.00;2.55;;;;;;;17.86;60.66;100043.41;1770329;80;21119;-53
2021/05/08 07:40:42;;;;;;;4.37;2.37;;;;;;;17.92;60.15;100052.40;1675696;84;21540;-66
2021/05/08 07:43:10;;;;;;;4.30;2.10;;;;;;;17.88;58.45;100057.02;1769549;81;21140;-54
2021/05/08 07:45:39;;;;;;;3.85;2.30;;;;;;;17.87;58.57;100053.12;1770458;81;21195;-66
2021/05/08 07:48:08;;;;;;;3.50;2.08;;;;;;;18.03;58.86;100059.44;1769227;81;21152;-66
2021/05/08 07:50:36;;;;;;;4.15;2.10;;;;;;;18.17;59.27;100056.58;1769341;81;21132;-53
2021/05/08 07:53:04;;;;;;;3.37;1.70;;;;;;;18.28;58.31;100056.92;1769546;81;21155;-54
2021/05/08 07:55:32;;;;;;;5.35;2.30;;;;;;;18.22;58.33;100065.21;1698772;84;21294;-66
2021/05/08 07:58:04;;;;;;;4.22;1.70;;;;;;;18.21;57.46;100063.00;1771938;80;21108;-67
2021/05/08 08:00:32;;;;;;;2.27;1.80;;;;;;;18.28;57.81;100060.91;1772284;80;21144;-54
2021/05/08 08:03:00;;;;;;;2.37;1.80;;;;;;;18.32;57.01;100058.50;1770499;80;21612;-66
2021/05/08 08:05:28;;;;;;;3.85;1.80;;;;;;;18.49;56.32;100073.64;1699307;83;21317;-53
2021/05/08 08:07:57;;;;;;;4.83;1.80;;;;;;;18.47;56.23;100062.64;1728004;83;21159;-53
2021/05/08 08:10:25;;;;;;;3.90;1.80;;;;;;;18.61;55.58;100068.60;1769337;81;21579;-54
2021/05/08 08:12:53;;;;;;;2.55;1.55;;;;;;;18.78;55.70;100078.40;1699158;84;21160;-54
2021/05/08 08:15:21;;;;;;;2.92;1.65;;;;;;;19.04;55.30;100078.90;1770152;80;21127;-66
2021/05/08 08:17:48;;;;;;;2.62;1.37;;;;;;;19.16;54.23;100076.92;1772001;81;21164;-54
2021/05/08 08:20:16;;;;;;;3.35;1.82;;;;;;;19.27;52.34;100085.69;1772144;81;21858;-53
2021/05/08 08:22:45;;;;;;;3.42;1.55;;;;;;;19.38;52.61;100091.77;1772216;80;21150;-67
2021/05/08 08:25:14;;;;;;;3.08;1.40;;;;;;;19.45;52.61;100094.02;1769537;80;21566;-54
2021/05/08 08:27:42;;;;;;;2.43;1.40;;;;;;;19.35;50.96;100095.48;1771177;80;21144;-67
2021/05/08 08:30:12;;;;;;;1.98;1.30;;;;;;;19.30;51.92;100101.53;1793097;80;21548;-54
2021/05/08 08:32:40;;;;;;;3.65;1.55;;;;;;;19.35;52.34;100106.16;1728069;83;21199;-54
2021/05/08 08:35:09;;;;;;;5.40;2.80;;;;;;;19.38;51.70;100106.45;1769227;80;21586;-67
2021/05/08 08:37:37;;;;;;;3.25;2.00;;;;;;;19.08;51.86;100113.31;1700782;84;21152;-54
2021/05/08 08:40:07;;;;;;;3.25;2.15;;;;;;;18.91;52.06;100122.16;1768752;81;21156;-66
2021/05/08 08:42:34;;;;;;;3.40;2.20;;;;;;;18.96;52.33;100124.64;1708914;83;21148;-54
2021/05/08 08:45:04;;;;;;;3.58;2.50;;;;;;;18.85;51.91;100143.80;1729637;83;21167;-67
2021/05/08 08:47:32;;;;;;;3.20;2.47;;;;;;;18.63;50.99;100136.02;1746809;82;21615;-66
2021/05/08 08:50:13;;;;;;;3.62;2.55;;;;;;;18.70;51.50;100134.78;1729442;82;21140;-66
2021/05/08 08:52:42;;;;;;;3.85;3.00;;;;;;;18.64;51.20;100135.96;1794671;80;21562;-53
2021/05/08 08:55:12;;;;;;;5.95;3.10;;;;;;;18.56;51.88;100148.80;1768852;81;21547;-65
2021/05/08 08:57:41;;;;;;;4.83;3.17;;;;;;;18.65;51.71;100147.02;1768798;81;21149;-54
2021/05/08 09:00:15;;;;;;;5.62;3.40;;;;;;;18.72;51.75;100150.23;1768743;81;21576;-53
2021/05/08 09:02:46;;;;;;;4.65;3.40;;;;;;;18.81;51.22;100160.44;1712160;83;21128;-67
2021/05/08 09:05:17;;;;;;;4.03;3.30;;;;;;;18.69;51.24;100161.92;1716991;83;21613;-65
2021/05/08 09:07:47;;;;;;;5.47;3.33;;;;;;;18.55;52.46;100175.91;1716884;83;21181;-54
2021/05/08 09:10:28;;;;;;;4.90;3.25;;;;;;;18.41;52.74;100181.06;1716714;83;21153;-53
2021/05/08 09:13:04;;;;;;;4.35;3.72;;;;;;;18.36;53.09;100166.61;1812951;77;27937;-52
2021/05/08 09:15:43;;;;;;;4.65;3.77;;;;;;;18.56;53.56;100168.79;1782316;80;21119;-53
2021/05/08 09:18:35;;;;;;;5.10;3.45;;;;;;;18.73;52.67;100171.49;1762046;81;21158;-53
2021/05/08 09:21:09;;;;;;;4.62;3.25;;;;;;;18.86;52.01;100168.19;1735297;81;21606;-53
2021/05/08 09:23:40;;;;;;;4.10;3.20;;;;;;;19.03;51.78;100174.03;1731900;83;21119;-66
2021/05/08 09:26:14;;;;;;;4.83;3.17;;;;;;;19.36;50.95;100173.71;1731637;82;21147;-53
2021/05/08 09:28:51;;;;;;;6.03;2.90;;;;;;;19.46;49.61;100179.81;1731945;83;21162;-65
2021/05/08 09:31:19;;;;;;;5.08;2.95;;;;;;;19.42;48.27;100186.73;1740789;81;21590;-54
2021/05/08 09:33:55;;;;;;;7.22;2.90;;;;;;;19.31;48.81;100192.16;1761915;81;21608;-65
2021/05/08 09:36:23;;;;;;;4.97;3.15;;;;;;;19.14;48.11;100199.70;1761768;80;21309;-53
2021/05/08 09:38:51;;;;;;;4.20;2.98;;;;;;;19.32;49.32;100197.03;1762010;81;21574;-53
2021/05/08 09:41:19;;;;;;;3.60;2.33;;;;;;;19.43;49.06;100203.98;1746825;80;21176;-54
2021/05/08 09:43:48;;;;;;;4.78;2.85;;;;;;;19.51;48.48;100198.27;1731146;81;21170;-65
2021/05/08 09:46:25;;;;;;;4.25;3.00;;;;;;;19.55;47.03;100198.95;1753237;80;21200;-66
2021/05/08 09:49:19;;;;;;;4.30;2.45;;;;;;;19.65;47.25;100186.01;1750653;81;21107;-53
2021/05/08 09:51:58;;;;;;;4.47;2.35;;;;;;;19.74;47.59;100187.70;1752843;81;21319;-65
2021/05/08 09:54:26;;;;;;;3.12;2.25;;;;;;;19.75;47.13;100187.22;1727822;81;21292;-64
2021/05/08 09:56:54;;;;;;;3.70;2.47;;;;;;;19.73;47.13;100193.98;1722513;83;21178;-65
2021/05/08 09:59:37;;;;;;;5.12;2.40;;;;;;;19.86;46.80;100199.52;1750820;81;21107;-53
2021/05/08 10:02:13;;;;;;;4.20;2.30;;;;;;;19.87;46.87;100197.73;1760750;81;21615;-53
2021/05/08 10:07:22;;;;;;;4.30;2.33;;;;;;;20.15;45.97;100210.94;1833595;77;22156;-65
2021/05/08 10:10:00;;;;;;;4.40;2.75;;;;;;;20.12;45.57;100225.80;1768514;80;21151;-52
2021/05/08 10:12:28;;;;;;;3.27;1.92;;;;;;;20.34;46.21;100234.34;1731281;81;21138;-52
2021/05/08 10:14:58;;;;;;;4.62;2.20;;;;;;;20.50;45.06;100234.38;1730585;81;21255;-65
2021/05/08 10:17:29;;;;;;;2.92;2.20;;;;;;;20.55;44.89;100245.25;1740021;81;21149;-53
2021/05/08 10:20:10;;;;;;;4.80;2.27;;;;;;;20.23;43.45;100237.22;1743559;81;21312;-66
2021/05/08 10:22:51;;;;;;;3.77;2.22;;;;;;;20.12;44.49;100236.48;1730742;82;21273;-64
2021/05/08 10:25:19;;;;;;;4.67;2.10;;;;;;;20.15;45.32;100249.19;1729159;81;21661;-63
2021/05/08 10:27:47;;;;;;;4.17;1.77;;;;;;;20.23;44.86;100246.58;1753505;81;21551;-64
2021/05/08 10:30:39;;;;;;;2.87;2.10;;;;;;;20.41;43.88;100246.03;1740505;81;21662;-64
2021/05/08 10:33:09;;;;;;;2.98;1.80;;;;;;;20.62;44.36;100258.20;1730473;83;21153;-64
2021/05/08 10:35:45;;;;;;;2.85;1.70;;;;;;;20.74;43.76;100253.97;1738870;81;21676;-52
2021/05/08 10:38:23;;;;;;;4.83;1.40;;;;;;;20.48;42.67;100260.33;1730674;83;21583;-65
2021/05/08 10:40:54;;;;;;;2.70;1.60;;;;;;;20.33;42.77;100252.66;1730603;81;21790;-66
2021/05/08 10:43:48;;;;;;;1.95;1.47;;;;;;;20.20;42.79;100260.48;1730739;83;22115;-65
2021/05/08 10:46:24;;;;;;;2.83;1.50;;;;;;;20.10;43.10;100270.43;1758459;81;21126;-52
2021/05/08 10:49:13;;;;;;;2.17;1.20;;;;;;;20.13;42.09;100269.78;1724408;83;21134;-64
2021/05/08 10:51:58;;;;;;;2.02;1.30;;;;;;;20.04;42.55;100263.13;1668694;86;21170;-52
2021/05/08 10:54:43;;;;;;;2.47;1.12;;;;;;;19.90;42.00;100275.90;1677193;84;21130;-52
2021/05/08 10:57:24;;;;;;;2.90;1.12;;;;;;;19.92;42.06;100274.47;1685062;85;21246;-64
2021/05/08 11:00:10;;;;;;;4.65;1.37;;;;;;;20.09;42.11;100270.89;1675451;84;21190;-65
2021/05/08 11:02:44;;;;;;;2.00;1.07;;;;;;;20.08;40.80;100276.33;1703359;83;21171;-52
2021/05/08 11:05:25;;;;;;;1.02;0.68;;;;;;;20.15;40.89;100279.06;1680518;83;21173;-64
2021/05/08 11:07:53;;;;;;;1.45;0.90;;;;;;;20.30;41.45;100294.73;1695537;84;21174;-52
2021/05/08 11:10:36;;;;;;;1.45;0.80;;;;;;;20.21;39.76;100296.95;1695682;84;21170;-65
2021/05/08 11:13:19;;;;;;;0.75;0.60;;;;;;;20.16;40.85;100295.48;1703821;83;21202;-63
2021/05/08 11:16:03;;;;;;;0.95;0.70;;;;;;;20.10;40.49;100298.00;1695576;84;21204;-52
2021/05/08 11:18:35;;;;;;;0.78;0.60;;;;;;;20.23;40.90;100298.23;1694994;84;21183;-52
2021/05/08 11:21:14;;;;;;;1.30;0.60;;;;;;;20.12;39.67;100308.13;1706276;83;21202;-52
2021/05/08 11:23:54;;;;;;;0.90;0.53;;;;;;;20.27;40.02;100312.27;1721911;83;21170;-52
2021/05/08 11:29:11;;;;;;;2.50;0.60;;;;;;;20.36;38.84;100327.33;1695245;83;21155;-65
2021/05/08 11:31:46;;;;;;;1.00;0.60;;;;;;;20.29;38.79;100302.36;1695152;84;21677;-63
2021/05/08 11:34:34;;;;;;;0.62;0.50;;;;;;;20.22;38.76;100305.84;1711318;83;21495;-52
2021/05/08 11:37:10;;;;;;;4.17;0.60;;;;;;;20.15;38.33;100316.47;1694881;84;21246;-63
2021/05/08 11:39:45;;;;;;;1.47;0.60;;;;;;;20.24;37.67;100303.08;1700040;83;21172;-51
2021/05/08 11:42:17;;;;;;;3.15;0.60;;;;;;;20.34;38.53;100306.50;1695149;84;21677;-53
2021/05/08 11:44:47;;;;;;;1.30;0.68;;;;;;;20.40;37.63;100309.79;1695439;83;21164;-65